ADDS TAF Data INFO
IDs: Format: Raw Decoded Include METARs

Data at: 1518 UTC 16 Jan 2018

KSBY 161253Z 1613/1712 01004KT 4SM BR SCT008
  FM161500 04005KT P6SM SCT020
  FM161800 08004KT P6SM SCT050
  FM170400 35004KT P6SM OVC015
  FM171000 32008KT P6SM OVC015